createdAt,value
2022-08-04T00:01:45.711Z,98627.97
2022-08-04T00:04:22.749Z,98625.63
2022-08-04T00:07:04.597Z,98626.16
2022-08-04T00:09:41.403Z,98625.44
2022-08-04T00:12:12.692Z,98628.81
2022-08-04T00:14:47.789Z,98625.16
2022-08-04T00:17:14.751Z,98624.31
2022-08-04T00:19:45.043Z,98614.66
2022-08-04T00:22:13.712Z,98620.78
2022-08-04T00:24:41.396Z,98618.06
2022-08-04T00:27:08.749Z,98624.31
2022-08-04T00:29:38.079Z,98625.31
2022-08-04T00:32:06.564Z,98616.19
2022-08-04T00:34:34.505Z,98623.81
2022-08-04T00:37:01.139Z,98597.06
2022-08-04T00:39:29.956Z,98622.81
2022-08-04T00:42:18.762Z,98627.09
2022-08-04T00:45:00.602Z,98632.00
2022-08-04T00:47:44.737Z,98633.63
2022-08-04T00:50:18.359Z,98629.38
2022-08-04T00:52:47.717Z,98630.03
2022-08-04T00:55:45.528Z,98626.31
2022-08-04T00:58:21.318Z,98631.53
2022-08-04T01:01:06.758Z,98634.00
2022-08-04T01:03:42.498Z,98632.78
2022-08-04T01:06:35.178Z,98630.06
2022-08-04T01:09:23.278Z,98639.00
2022-08-04T01:12:28.066Z,98639.97
2022-08-04T01:14:54.602Z,98643.22
2022-08-04T01:17:43.143Z,98632.72
2022-08-04T01:20:11.436Z,98640.28
2022-08-04T01:23:26.144Z,98641.63
2022-08-04T01:26:42.691Z,98645.63
2022-08-04T01:29:09.631Z,98638.16
2022-08-04T01:31:57.259Z,98641.78
2022-08-04T01:34:29.033Z,98623.31
2022-08-04T01:37:00.666Z,98637.22
2022-08-04T01:39:41.924Z,98631.13
2022-08-04T01:42:12.544Z,98643.56
2022-08-04T01:44:41.418Z,98638.78
2022-08-04T01:47:09.857Z,98641.47
2022-08-04T01:49:39.902Z,98643.38
2022-08-04T01:52:10.580Z,98633.56
2022-08-04T01:54:39.635Z,98630.63
2022-08-04T01:57:38.608Z,98635.28
2022-08-04T01:59:54.143Z,98627.50
2022-08-04T02:02:24.767Z,98631.75
2022-08-04T02:04:52.106Z,98625.47
2022-08-04T02:07:41.456Z,98635.44
2022-08-04T02:10:14.825Z,98634.66
2022-08-04T02:12:56.368Z,98622.00
2022-08-04T02:15:35.701Z,98625.69
2022-08-04T02:18:31.400Z,98626.09
2022-08-04T02:21:00.605Z,98622.69
2022-08-04T02:23:41.027Z,98624.63
2022-08-04T02:26:29.481Z,98620.47
2022-08-04T02:29:04.921Z,98607.44
2022-08-04T02:31:38.823Z,98628.03
2022-08-04T02:34:16.710Z,98623.09
2022-08-04T02:36:43.996Z,98616.84
2022-08-04T02:39:12.130Z,98629.03
2022-08-04T02:41:40.710Z,98625.78
2022-08-04T02:44:10.274Z,98624.09
2022-08-04T02:46:38.772Z,98626.25
2022-08-04T02:49:10.088Z,98628.72
2022-08-04T02:51:47.442Z,98591.16
2022-08-04T02:54:32.499Z,98619.19
2022-08-04T02:57:01.928Z,98609.81
2022-08-04T02:59:53.553Z,98618.94
2022-08-04T03:02:30.344Z,98605.50
2022-08-04T03:05:15.506Z,98616.47
2022-08-04T03:07:57.169Z,98619.16
2022-08-04T03:10:45.051Z,98622.25
2022-08-04T03:13:34.776Z,98614.38
2022-08-04T03:16:04.053Z,98604.97
2022-08-04T03:18:52.038Z,98619.44
2022-08-04T03:21:43.023Z,98588.56
2022-08-04T03:24:30.311Z,98611.19
2022-08-04T03:27:05.974Z,98626.00
2022-08-04T03:29:36.538Z,98623.84
2022-08-04T03:32:41.423Z,98629.53
2022-08-04T03:35:22.536Z,98610.81
2022-08-04T03:38:16.037Z,98623.84
2022-08-04T03:41:14.098Z,98632.66
2022-08-04T03:43:58.743Z,98634.09
2022-08-04T03:46:48.005Z,98642.38
2022-08-04T03:49:32.605Z,98635.84
2022-08-04T03:52:53.143Z,98630.94
2022-08-04T03:55:45.225Z,98637.72
2022-08-04T03:58:17.625Z,98630.06
2022-08-04T04:00:52.952Z,98632.94
2022-08-04T04:04:03.817Z,98639.13
2022-08-04T04:06:54.133Z,98636.66
2022-08-04T04:10:11.538Z,98637.13
2022-08-04T04:12:56.222Z,98633.38
2022-08-04T04:16:04.107Z,98632.66
2022-08-04T04:18:57.672Z,98602.41
2022-08-04T04:21:42.831Z,98637.44
2022-08-04T04:24:45.321Z,98637.91
2022-08-04T04:27:38.442Z,98643.53
2022-08-04T04:30:06.699Z,98641.03
2022-08-04T04:32:54.954Z,98647.31
2022-08-04T04:35:55.504Z,98643.13
2022-08-04T04:39:11.555Z,98652.75
2022-08-04T04:41:40.914Z,98648.00
2022-08-04T04:44:10.471Z,98647.84
2022-08-04T04:46:58.512Z,98648.38
2022-08-04T04:50:02.577Z,98652.47
2022-08-04T04:52:29.140Z,98652.47
2022-08-04T04:54:55.667Z,98652.13
2022-08-04T04:57:53.144Z,98653.22
2022-08-04T05:00:13.885Z,98660.31
2022-08-04T05:03:37.146Z,98652.69
2022-08-04T05:06:15.520Z,98661.69
2022-08-04T05:08:59.707Z,98657.59
2022-08-04T05:11:26.251Z,98660.38
2022-08-04T05:14:36.883Z,98662.44
2022-08-04T05:16:51.228Z,98656.00
2022-08-04T05:19:26.816Z,98665.16
2022-08-04T05:21:59.322Z,98664.72
2022-08-04T05:24:28.142Z,98670.38
2022-08-04T05:27:10.227Z,98667.88
2022-08-04T05:29:42.125Z,98670.28
2022-08-04T05:32:15.024Z,98668.31
2022-08-04T05:34:47.638Z,98673.91
2022-08-04T05:37:20.742Z,98660.06
2022-08-04T05:39:57.298Z,98665.25
2022-08-04T05:42:26.197Z,98673.38
2022-08-04T05:44:54.509Z,98670.75
2022-08-04T05:47:22.555Z,98676.28
2022-08-04T05:49:55.552Z,98679.00
2022-08-04T05:52:30.395Z,98671.44
2022-08-04T05:54:59.178Z,98676.84
2022-08-04T05:57:26.849Z,98670.53
2022-08-04T05:59:55.484Z,98677.88
2022-08-04T06:02:24.524Z,98679.19
2022-08-04T06:04:53.278Z,98678.66
2022-08-04T06:07:20.451Z,98670.56
2022-08-04T06:09:47.598Z,98681.25
2022-08-04T06:12:37.853Z,98670.47
2022-08-04T06:15:07.741Z,98666.66
2022-08-04T06:19:57.535Z,98669.34
2022-08-04T06:20:32.833Z,98665.00
2022-08-04T06:23:06.074Z,98666.47
2022-08-04T06:25:39.395Z,98662.63
2022-08-04T06:28:07.807Z,98660.81
2022-08-04T06:30:36.982Z,98659.94
2022-08-04T06:33:13.783Z,98669.31
2022-08-04T06:35:41.603Z,98658.84
2022-08-04T06:38:09.570Z,98672.78
2022-08-04T06:40:36.346Z,98666.50
2022-08-04T06:43:06.575Z,98667.66
2022-08-04T06:45:37.856Z,98662.81
2022-08-04T06:48:06.481Z,98656.53
2022-08-04T06:51:24.504Z,98660.25
2022-08-04T06:53:22.498Z,98649.53
2022-08-04T06:55:50.832Z,98656.03
2022-08-04T06:58:20.247Z,98646.56
2022-08-04T07:00:48.528Z,98652.34
2022-08-04T07:03:17.797Z,98657.94
2022-08-04T07:05:47.374Z,98651.00
2022-08-04T07:08:14.659Z,98651.44
2022-08-04T07:10:41.399Z,98661.06
2022-08-04T07:13:09.533Z,98659.28
2022-08-04T07:15:39.030Z,98656.69
2022-08-04T07:18:05.801Z,98654.41
2022-08-04T07:20:35.457Z,98668.28
2022-08-04T07:23:04.424Z,98638.31
2022-08-04T07:26:01.191Z,98664.81
2022-08-04T07:28:18.927Z,98661.88
2022-08-04T07:30:47.251Z,98651.88
2022-08-04T07:33:14.991Z,98655.22
2022-08-04T07:36:09.224Z,98651.97
2022-08-04T07:38:28.882Z,98654.09
2022-08-04T07:40:56.624Z,98654.97
2022-08-04T07:43:23.640Z,98651.16
2022-08-04T07:45:50.645Z,98651.34
2022-08-04T07:48:18.954Z,98646.50
2022-08-04T07:50:46.853Z,98645.94
2022-08-04T07:53:54.600Z,98642.03
2022-08-04T07:56:02.741Z,98639.84
2022-08-04T07:58:30.279Z,98642.22
2022-08-04T08:00:58.097Z,98637.19
2022-08-04T08:03:26.430Z,98634.50
2022-08-04T08:06:17.568Z,98640.44
2022-08-04T08:08:40.097Z,98646.69
2022-08-04T08:11:10.972Z,98637.94
2022-08-04T08:13:38.684Z,98642.44
2022-08-04T08:16:06.082Z,98646.91
2022-08-04T08:18:32.796Z,98638.34
2022-08-04T08:20:59.433Z,98643.41
2022-08-04T08:23:26.846Z,98651.78
2022-08-04T08:25:53.641Z,98644.41
2022-08-04T08:28:20.401Z,98648.31
2022-08-04T08:30:52.781Z,98641.22
2022-08-04T08:33:21.248Z,98637.19
2022-08-04T08:36:03.560Z,98642.38
2022-08-04T08:38:49.588Z,98647.28
2022-08-04T08:41:42.967Z,98635.38
2022-08-04T08:44:37.450Z,98647.91
2022-08-04T08:47:25.113Z,98640.47
2022-08-04T08:50:12.902Z,98649.75
2022-08-04T08:53:02.684Z,98647.03
2022-08-04T08:55:51.144Z,98638.59
2022-08-04T08:58:59.123Z,98627.31
2022-08-04T09:01:49.516Z,98641.72
2022-08-04T09:04:42.306Z,98641.91
2022-08-04T09:07:33.922Z,98646.75
2022-08-04T09:10:17.494Z,98635.78
2022-08-04T09:12:52.859Z,98644.91
2022-08-04T09:15:36.344Z,98639.53
2022-08-04T09:18:09.804Z,98636.94
2022-08-04T09:21:04.342Z,98644.78
2022-08-04T09:23:56.063Z,98640.31
2022-08-04T09:26:36.741Z,98639.28
2022-08-04T09:29:41.589Z,98634.22
2022-08-04T09:32:39.040Z,98632.53
2022-08-04T09:35:38.248Z,98634.59
2022-08-04T09:38:21.221Z,98630.75
2022-08-04T09:40:57.848Z,98639.06
2022-08-04T09:43:59.047Z,98638.66
2022-08-04T09:46:47.062Z,98629.91
2022-08-04T09:49:23.187Z,98630.28
2022-08-04T09:51:57.166Z,98622.38
2022-08-04T09:54:47.177Z,98614.63
2022-08-04T09:57:16.536Z,98610.00
2022-08-04T09:59:57.365Z,98607.19
2022-08-04T10:02:26.793Z,98607.50
2022-08-04T10:04:57.197Z,98600.69
2022-08-04T10:08:00.059Z,98606.13
2022-08-04T10:11:05.369Z,98604.31
2022-08-04T10:13:56.818Z,98601.31
2022-08-04T10:17:01.426Z,98603.31
2022-08-04T10:19:31.636Z,98598.09
2022-08-04T10:22:29.018Z,98601.44
2022-08-04T10:25:37.455Z,98598.84
2022-08-04T10:28:00.417Z,98593.72
2022-08-04T10:30:28.805Z,98591.53
2022-08-04T10:33:11.261Z,98597.63
2022-08-04T10:35:49.151Z,98591.16
2022-08-04T10:38:27.803Z,98597.13
2022-08-04T10:41:01.989Z,98599.59
2022-08-04T10:44:02.600Z,98585.13
2022-08-04T10:46:43.609Z,98597.41
2022-08-04T10:49:21.752Z,98583.19
2022-08-04T10:51:59.870Z,98583.72
2022-08-04T10:54:33.003Z,98579.41
2022-08-04T10:57:23.849Z,98590.50
2022-08-04T11:00:00.491Z,98580.50
2022-08-04T11:02:30.280Z,98582.94
2022-08-04T11:05:04.724Z,98578.28
2022-08-04T11:07:35.087Z,98582.19
2022-08-04T11:10:02.673Z,98548.34
2022-08-04T11:12:30.098Z,98579.44
2022-08-04T11:15:02.295Z,98574.88
2022-08-04T11:17:36.168Z,98585.94
2022-08-04T11:20:35.055Z,98573.50
2022-08-04T11:23:11.872Z,98576.03
2022-08-04T11:26:00.719Z,98577.00
2022-08-04T11:29:03.394Z,98576.91
2022-08-04T11:31:40.415Z,98573.81
2022-08-04T11:34:22.039Z,98569.28
2022-08-04T11:37:13.887Z,98557.25
2022-08-04T11:39:49.537Z,98563.72
2022-08-04T11:43:02.081Z,98570.16
2022-08-04T11:45:34.186Z,98571.00
2022-08-04T11:48:17.376Z,98554.19
2022-08-04T11:50:53.397Z,98557.09
2022-08-04T11:53:26.413Z,98547.81
2022-08-04T11:56:07.940Z,98550.56
2022-08-04T11:58:37.457Z,98533.59
2022-08-04T12:01:19.934Z,98534.31
2022-08-04T12:04:12.898Z,98541.59
2022-08-04T12:07:28.818Z,98533.53
2022-08-04T12:10:09.513Z,98523.47
2022-08-04T12:13:10.677Z,98528.44
2022-08-04T12:15:41.004Z,98526.94
2022-08-04T12:18:26.139Z,98524.38
2022-08-04T12:21:07.599Z,98520.91
2022-08-04T12:23:40.194Z,98520.94
2022-08-04T12:26:10.684Z,98520.03
2022-08-04T12:31:54.755Z,98514.31
2022-08-04T12:34:21.166Z,98511.47
2022-08-04T12:37:11.383Z,98511.59
2022-08-04T12:40:27.243Z,98507.97
2022-08-04T12:42:36.560Z,98500.03
2022-08-04T12:45:14.209Z,98511.91
2022-08-04T12:47:42.709Z,98512.59
2022-08-04T12:50:14.261Z,98503.91
2022-08-04T12:53:06.389Z,98503.19
2022-08-04T12:55:35.334Z,98501.91
2022-08-04T12:58:03.997Z,98497.84
2022-08-04T13:00:41.342Z,98501.28
2022-08-04T13:03:15.650Z,98505.41
2022-08-04T13:05:44.971Z,98496.28
2022-08-04T13:08:13.451Z,98502.16
2022-08-04T13:10:46.880Z,98493.06
2022-08-04T13:13:26.925Z,98494.63
2022-08-04T13:16:00.879Z,98495.56
2022-08-04T13:18:32.316Z,98489.56
2022-08-04T13:21:50.309Z,98483.75
2022-08-04T13:24:22.786Z,98477.06
2022-08-04T13:27:06.189Z,98486.56
2022-08-04T13:29:59.694Z,98478.09
2022-08-04T13:32:30.038Z,98475.09
2022-08-04T13:35:00.148Z,98468.09
2022-08-04T13:37:35.235Z,98478.00
2022-08-04T13:40:05.319Z,98466.97
2022-08-04T13:42:35.834Z,98474.84
2022-08-04T13:45:03.695Z,98466.97
2022-08-04T13:47:34.242Z,98462.78
2022-08-04T13:50:19.486Z,98465.22
2022-08-04T13:52:47.447Z,98472.56
2022-08-04T13:55:33.898Z,98463.75
2022-08-04T13:58:10.728Z,98461.59
2022-08-04T14:00:43.464Z,98464.31
2022-08-04T14:03:21.025Z,98460.16
2022-08-04T14:06:10.667Z,98457.34
2022-08-04T14:08:54.961Z,98451.03
2022-08-04T14:12:06.385Z,98457.06
2022-08-04T14:14:30.501Z,98451.41
2022-08-04T14:17:00.537Z,98446.06
2022-08-04T14:19:35.845Z,98438.97
2022-08-04T14:22:03.077Z,98435.34
2022-08-04T14:24:29.705Z,98437.34
2022-08-04T14:27:00.678Z,98436.63
2022-08-04T14:29:37.765Z,98442.19
2022-08-04T14:32:13.962Z,98426.91
2022-08-04T14:34:45.074Z,98430.72
2022-08-04T14:37:18.232Z,98431.09
2022-08-04T14:40:17.679Z,98434.19
2022-08-04T14:42:54.995Z,98425.22
2022-08-04T14:45:36.902Z,98422.84
2022-08-04T14:48:09.372Z,98425.50
2022-08-04T14:50:43.185Z,98422.88
2022-08-04T14:53:19.467Z,98414.63
2022-08-04T14:55:49.427Z,98422.44
2022-08-04T14:58:35.741Z,98420.50
2022-08-04T15:01:10.377Z,98425.63
2022-08-04T15:03:50.078Z,98422.97
2022-08-04T15:06:23.068Z,98419.72
2022-08-04T15:08:51.276Z,98414.31
2022-08-04T15:11:23.581Z,98410.94
2022-08-04T15:13:52.208Z,98423.00
2022-08-04T15:16:19.245Z,98410.56
2022-08-04T15:18:49.242Z,98421.94
2022-08-04T15:21:17.492Z,98420.41
2022-08-04T15:23:44.425Z,98421.00
2022-08-04T15:26:18.900Z,98421.47
2022-08-04T15:28:51.572Z,98412.69
2022-08-04T15:32:04.113Z,98417.75
2022-08-04T15:34:09.479Z,98410.97
2022-08-04T15:36:56.236Z,98400.44
2022-08-04T15:39:55.857Z,98407.44
2022-08-04T15:42:42.022Z,98406.00
2022-08-04T15:45:19.113Z,98416.00
2022-08-04T15:48:17.686Z,98403.75
2022-08-04T15:51:06.954Z,98413.22
2022-08-04T15:54:03.236Z,98411.31
2022-08-04T15:56:34.888Z,98413.00
2022-08-04T15:59:01.537Z,98410.34
2022-08-04T16:01:28.294Z,98404.69
2022-08-04T16:04:00.146Z,98396.97
2022-08-04T16:06:29.363Z,98403.78
2022-08-04T16:09:02.132Z,98395.00
2022-08-04T16:11:37.230Z,98411.53
2022-08-04T16:14:04.037Z,98403.16
2022-08-04T16:16:37.199Z,98389.66
2022-08-04T16:19:14.493Z,98403.16
2022-08-04T16:21:49.941Z,98396.94
2022-08-04T16:24:36.723Z,98399.69
2022-08-04T16:27:05.640Z,98396.59
2022-08-04T16:29:38.204Z,98397.00
2022-08-04T16:32:04.895Z,98401.75
2022-08-04T16:34:49.492Z,98390.41
2022-08-04T16:37:24.890Z,98398.00
2022-08-04T16:40:26.400Z,98395.91
2022-08-04T16:43:01.669Z,98383.59
2022-08-04T16:45:49.595Z,98391.41
2022-08-04T16:48:26.962Z,98382.00
2022-08-04T16:50:57.494Z,98391.47
2022-08-04T16:53:52.699Z,98384.28
2022-08-04T16:56:29.605Z,98388.56
2022-08-04T16:58:56.604Z,98392.38
2022-08-04T17:01:33.064Z,98382.31
2022-08-04T17:04:05.311Z,98381.22
2022-08-04T17:06:38.964Z,98389.88
2022-08-04T17:09:10.147Z,98394.56
2022-08-04T17:11:37.042Z,98389.16
2022-08-04T17:14:05.885Z,98395.06
2022-08-04T17:16:34.953Z,98404.09
2022-08-04T17:19:02.028Z,98402.44
2022-08-04T17:21:31.541Z,98402.88
2022-08-04T17:24:14.641Z,98400.16
2022-08-04T17:26:45.461Z,98399.75
2022-08-04T17:29:43.981Z,98394.31
2022-08-04T17:32:16.072Z,98400.22
2022-08-04T17:34:46.272Z,98400.41
2022-08-04T17:37:39.562Z,98400.88
2022-08-04T17:40:10.233Z,98390.13
2022-08-04T17:42:39.812Z,98393.94
2022-08-04T17:48:03.051Z,98404.22
2022-08-04T17:50:35.748Z,98405.06
2022-08-04T17:53:11.975Z,98406.88
2022-08-04T17:55:46.933Z,98406.28
2022-08-04T17:58:23.136Z,98403.09
2022-08-04T18:01:22.733Z,98396.34
2022-08-04T18:03:51.908Z,98402.59
2022-08-04T18:06:20.482Z,98402.72
2022-08-04T18:08:54.760Z,98404.56
2022-08-04T18:11:29.579Z,98405.34
2022-08-04T18:14:08.229Z,98410.75
2022-08-04T18:16:43.746Z,98411.91
2022-08-04T18:19:14.561Z,98410.34
2022-08-04T18:21:46.911Z,98411.13
2022-08-04T18:24:36.144Z,98419.69
2022-08-04T18:27:18.945Z,98418.72
2022-08-04T18:30:14.578Z,98420.75
2022-08-04T18:32:33.824Z,98423.81
2022-08-04T18:35:05.344Z,98433.16
2022-08-04T18:38:03.032Z,98433.28
2022-08-04T18:40:30.104Z,98440.44
2022-08-04T18:43:02.103Z,98442.47
2022-08-04T18:45:34.563Z,98441.13
2022-08-04T18:48:01.924Z,98443.19
2022-08-04T18:50:59.576Z,98442.06
2022-08-04T18:53:16.588Z,98446.59
2022-08-04T18:55:55.236Z,98447.53
2022-08-04T18:58:27.565Z,98458.81
2022-08-04T19:01:00.445Z,98447.44
2022-08-04T19:03:33.174Z,98455.53
2022-08-04T19:06:02.183Z,98455.06
2022-08-04T19:08:34.684Z,98442.75
2022-08-04T19:11:38.229Z,98454.06
2022-08-04T19:13:54.853Z,98456.50
2022-08-04T19:16:26.867Z,98455.09
2022-08-04T19:18:53.711Z,98454.97
2022-08-04T19:22:00.683Z,98448.41
2022-08-04T19:24:29.006Z,98460.59
2022-08-04T19:26:55.744Z,98459.47
2022-08-04T19:29:22.499Z,98458.88
2022-08-04T19:31:49.115Z,98460.94
2022-08-04T19:34:17.972Z,98465.88
2022-08-04T19:37:01.407Z,98460.69
2022-08-04T19:39:28.027Z,98462.63
2022-08-04T19:42:06.427Z,98463.06
2022-08-04T19:44:33.525Z,98453.25
2022-08-04T19:47:00.569Z,98453.78
2022-08-04T19:50:03.305Z,98471.63
2022-08-04T19:52:15.543Z,98472.00
2022-08-04T19:55:01.086Z,98467.91
2022-08-04T19:57:38.035Z,98476.84
2022-08-04T20:00:10.074Z,98471.13
2022-08-04T20:02:37.448Z,98470.28
2022-08-04T20:05:08.811Z,98465.91
2022-08-04T20:07:35.705Z,98469.13
2022-08-04T20:10:04.551Z,98475.94
2022-08-04T20:12:31.735Z,98468.50
2022-08-04T20:14:58.350Z,98476.84
2022-08-04T20:18:08.029Z,98482.75
2022-08-04T20:20:14.959Z,98473.59
2022-08-04T20:22:51.889Z,98481.06
2022-08-04T20:25:35.784Z,98465.44
2022-08-04T20:28:03.315Z,98466.13
2022-08-04T20:30:30.663Z,98475.75
2022-08-04T20:32:57.806Z,98466.56
2022-08-04T20:35:26.814Z,98475.22
2022-08-04T20:38:00.698Z,98474.19
2022-08-04T20:40:29.819Z,98472.50
2022-08-04T20:42:57.437Z,98480.22
2022-08-04T20:45:55.614Z,98478.78
2022-08-04T20:48:11.712Z,98467.75
2022-08-04T20:50:38.298Z,98473.72
2022-08-04T20:53:16.855Z,98476.13
2022-08-04T20:55:54.637Z,98473.59
2022-08-04T20:58:27.127Z,98473.66
2022-08-04T21:00:55.034Z,98477.38
2022-08-04T21:03:49.441Z,98474.00
2022-08-04T21:06:08.880Z,98471.66
2022-08-04T21:08:35.443Z,98475.22
2022-08-04T21:11:03.293Z,98476.91
2022-08-04T21:13:51.938Z,98478.44
2022-08-04T21:16:53.863Z,98479.09
2022-08-04T21:19:06.048Z,98482.16
2022-08-04T21:21:40.894Z,98482.69
2022-08-04T21:24:08.942Z,98485.81
2022-08-04T21:26:35.646Z,98489.03
2022-08-04T21:29:04.793Z,98500.06
2022-08-04T21:31:32.534Z,98490.88
2022-08-04T21:34:08.915Z,98484.50
2022-08-04T21:36:35.520Z,98499.41
2022-08-04T21:39:02.111Z,98495.03
2022-08-04T21:41:29.566Z,98467.53
2022-08-04T21:43:56.245Z,98501.72
2022-08-04T21:46:23.421Z,98490.75
2022-08-04T21:48:50.833Z,98502.25
2022-08-04T21:51:58.729Z,98507.41
2022-08-04T21:54:08.858Z,98501.28
2022-08-04T21:56:36.292Z,98495.50
2022-08-04T21:59:11.077Z,98501.19
2022-08-04T22:01:52.457Z,98495.59
2022-08-04T22:04:21.503Z,98502.84
2022-08-04T22:06:52.177Z,98495.75
2022-08-04T22:09:21.570Z,98497.38
2022-08-04T22:11:50.949Z,98507.72
2022-08-04T22:14:29.376Z,98508.91
2022-08-04T22:17:02.472Z,98508.06
2022-08-04T22:19:50.222Z,98507.78
2022-08-04T22:22:25.217Z,98512.19
2022-08-04T22:24:53.025Z,98507.97
2022-08-04T22:27:38.012Z,98519.88
2022-08-04T22:30:13.337Z,98529.53
2022-08-04T22:32:44.358Z,98517.84
2022-08-04T22:35:30.870Z,98517.94
2022-08-04T22:38:06.185Z,98526.28
2022-08-04T22:40:34.485Z,98519.84
2022-08-04T22:43:03.067Z,98516.81
2022-08-04T22:45:43.286Z,98511.84
2022-08-04T22:48:11.552Z,98523.25
2022-08-04T22:50:38.144Z,98515.78
2022-08-04T22:53:06.503Z,98515.47
2022-08-04T22:56:06.880Z,98519.59
2022-08-04T22:58:19.926Z,98517.88
2022-08-04T23:00:53.026Z,98516.69
2022-08-04T23:03:37.646Z,98510.28
2022-08-04T23:06:11.026Z,98513.97
2022-08-04T23:08:43.034Z,98507.88
2022-08-04T23:11:13.411Z,98495.50
2022-08-04T23:13:41.735Z,98502.25
2022-08-04T23:16:09.873Z,98506.28
2022-08-04T23:18:42.061Z,98507.31
2022-08-04T23:21:12.202Z,98514.50
2022-08-04T23:23:55.462Z,98507.75
2022-08-04T23:26:28.402Z,98519.78
2022-08-04T23:28:56.125Z,98498.75
2022-08-04T23:31:23.433Z,98500.63
2022-08-04T23:33:52.017Z,98503.88
2022-08-04T23:36:29.526Z,98509.84
2022-08-04T23:39:03.987Z,98517.78
2022-08-04T23:41:54.269Z,98508.81
2022-08-04T23:44:24.454Z,98505.06
2022-08-04T23:47:00.306Z,98509.16
2022-08-04T23:49:40.569Z,98503.38
2022-08-04T23:52:23.521Z,98504.78
2022-08-04T23:55:00.184Z,98503.75
2022-08-04T23:57:30.883Z,98517.63
2022-08-04T23:59:58.448Z,98508.81
